Time;durP1;ratioP1;P1;durP2;ratioP2;P2;SDS_P1;SDS_P2;PMS_P1;PMS_P2;Temp;Humidity;BMP_temperature;BMP_pressure;BME280_temperature;BME280_humidity;BME280_pressure;Samples;Min_cycle;Max_cycle;Signal;HPM_P1;HPM_P2
2024/02/23 00:01:43;;;;;;;;;;;;;;;15.90;45.39;100759.47;4956754;29;1121;-37
2024/02/23 00:04:10;;;;;;;;;;;;;;;16.45;45.71;100759.19;4958195;29;1120;-40
2024/02/23 00:06:35;;;;;;;;;;;;;;;16.40;45.11;100761.34;4958007;29;1050;-37
2024/02/23 00:09:01;;;;;;;;;;;;;;;15.81;45.54;100752.19;4957896;29;1129;-37
2024/02/23 00:11:28;;;;;;;;;;;;;;;16.39;45.61;100749.88;4945377;29;1989;-37
2024/02/23 00:13:54;;;;;;;;;;;;;;;16.96;43.93;100746.69;4958174;29;1060;-42
2024/02/23 00:16:19;;;;;;;;;;;;;;;15.93;45.76;100745.16;4957730;29;1042;-41
2024/02/23 00:18:45;;;;;;;;;;;;;;;17.70;42.94;100742.03;4940585;29;1980;-38
2024/02/23 00:21:10;;;;;;;;;;;;;;;16.49;44.95;100738.59;4957421;28;1166;-40
2024/02/23 00:23:36;;;;;;;;;;;;;;;15.89;45.53;100737.44;4957891;29;1200;-42
2024/02/23 00:26:02;;;;;;;;;;;;;;;16.98;44.46;100741.25;4958193;29;1009;-37
2024/02/23 00:28:28;;;;;;;;;;;;;;;16.28;44.97;100745.34;4954484;29;1318;-38
2024/02/23 00:30:53;;;;;;;;;;;;;;;15.88;45.56;100735.72;4957959;29;1428;-39
2024/02/23 00:33:19;;;;;;;;;;;;;;;17.30;43.84;100731.81;4956029;29;1911;-42
2024/02/23 00:35:44;;;;;;;;;;;;;;;16.68;44.29;100735.44;4946841;29;1122;-37
2024/02/23 00:38:10;;;;;;;;;;;;;;;16.01;45.23;100730.44;4958106;29;1006;-42
2024/02/23 00:40:35;;;;;;;;;;;;;;;17.01;44.60;100722.41;4957992;29;1046;-40
2024/02/23 00:43:02;;;;;;;;;;;;;;;16.58;44.54;100721.97;4958031;29;1076;-40
2024/02/23 00:45:28;;;;;;;;;;;;;;;15.96;45.23;100721.94;4957144;29;1471;-44
2024/02/23 00:47:54;;;;;;;;;;;;;;;16.69;45.21;100717.69;4955942;29;1004;-42
2024/02/23 00:50:19;;;;;;;;;;;;;;;17.07;43.55;100713.09;4957449;29;2723;-43
2024/02/23 00:52:45;;;;;;;;;;;;;;;15.99;45.56;100713.78;4957339;29;1906;-38
2024/02/23 00:55:10;;;;;;;;;;;;;;;17.57;43.04;100704.91;4957705;29;1125;-37
2024/02/23 00:57:38;;;;;;;;;;;;;;;16.42;44.66;100708.97;4955389;29;1122;-41
2024/02/23 01:00:05;;;;;;;;;;;;;;;15.94;45.07;100701.75;4961051;29;896;-37
2024/02/23 01:02:31;;;;;;;;;;;;;;;16.81;44.96;100697.31;4960960;29;1049;-41
2024/02/23 01:04:58;;;;;;;;;;;;;;;16.88;44.08;100695.91;4961177;29;1161;-44
2024/02/23 01:07:24;;;;;;;;;;;;;;;16.13;44.89;100693.38;4961155;29;1176;-42
2024/02/23 01:09:50;;;;;;;;;;;;;;;15.73;45.38;100699.69;4956446;29;1136;-44
2024/02/23 01:12:15;;;;;;;;;;;;;;;17.73;42.54;100693.88;4956862;29;1980;-41
2024/02/23 01:14:41;;;;;;;;;;;;;;;16.28;44.67;100688.75;4961016;29;1069;-42
2024/02/23 01:17:06;;;;;;;;;;;;;;;15.74;45.68;100690.75;4951756;29;1148;-39
2024/02/23 01:19:32;;;;;;;;;;;;;;;17.48;43.25;100690.50;4950867;29;1961;-43
2024/02/23 01:22:00;;;;;;;;;;;;;;;16.59;44.56;100685.66;4959715;29;977;-41
2024/02/23 01:24:27;;;;;;;;;;;;;;;15.93;45.57;100686.81;4947979;29;1196;-41
2024/02/23 01:26:54;;;;;;;;;;;;;;;17.22;43.91;100681.88;4960829;29;962;-38
2024/02/23 01:29:20;;;;;;;;;;;;;;;16.80;44.12;100669.91;4958248;29;1117;-40
2024/02/23 01:31:45;;;;;;;;;;;;;;;16.08;44.97;100675.09;4959843;29;1981;-38
2024/02/23 01:34:11;;;;;;;;;;;;;;;15.77;45.45;100661.38;4956207;29;1200;-42
2024/02/23 01:36:38;;;;;;;;;;;;;;;15.64;45.11;100659.59;4952308;29;1232;-42
2024/02/23 01:39:04;;;;;;;;;;;;;;;17.11;43.77;100651.69;4952488;29;1172;-40
2024/02/23 01:41:30;;;;;;;;;;;;;;;15.85;45.97;100655.53;4954808;29;1209;-39
2024/02/23 01:43:55;;;;;;;;;;;;;;;15.67;45.60;100643.47;4960594;29;1243;-42
2024/02/23 01:46:21;;;;;;;;;;;;;;;16.72;44.46;100643.94;4960237;29;1121;-39
2024/02/23 01:48:46;;;;;;;;;;;;;;;15.88;45.72;100647.34;4960853;29;1224;-42
2024/02/23 01:51:12;;;;;;;;;;;;;;;16.15;46.06;100648.97;4960631;29;1053;-39
2024/02/23 01:53:38;;;;;;;;;;;;;;;16.53;44.31;100642.66;4939019;29;1907;-41
2024/02/23 01:56:04;;;;;;;;;;;;;;;15.84;45.36;100644.06;4960164;29;1182;-40
2024/02/23 01:58:30;;;;;;;;;;;;;;;17.45;43.27;100631.41;4942647;29;1642;-41
2024/02/23 02:00:55;;;;;;;;;;;;;;;16.21;45.05;100645.03;4957924;29;1149;-41
2024/02/23 02:03:21;;;;;;;;;;;;;;;15.95;45.92;100631.84;4959938;29;1149;-44
2024/02/23 02:05:46;;;;;;;;;;;;;;;17.46;42.75;100641.06;4958920;29;1133;-39
2024/02/23 02:08:12;;;;;;;;;;;;;;;16.14;45.43;100639.31;4960509;29;1108;-42
2024/02/23 02:10:37;;;;;;;;;;;;;;;15.85;45.42;100642.28;4959172;28;1089;-42
2024/02/23 02:13:04;;;;;;;;;;;;;;;16.87;44.50;100651.69;4959843;29;1976;-39
2024/02/23 02:15:30;;;;;;;;;;;;;;;16.81;44.00;100641.53;4951024;28;1165;-42
2024/02/23 02:17:55;;;;;;;;;;;;;;;15.98;45.42;100647.53;4956109;29;1022;-41
2024/02/23 02:20:23;;;;;;;;;;;;;;;15.64;45.33;100648.13;4960110;29;1488;-40
2024/02/23 02:22:49;;;;;;;;;;;;;;;17.22;43.87;100644.66;4954247;28;1153;-40
2024/02/23 02:25:15;;;;;;;;;;;;;;;16.21;45.05;100648.56;4959744;29;903;-41
2024/02/23 02:27:41;;;;;;;;;;;;;;;16.27;45.90;100652.53;4959659;29;1058;-40
2024/02/23 02:30:07;;;;;;;;;;;;;;;17.30;42.91;100649.41;4959874;29;1069;-42
2024/02/23 02:32:32;;;;;;;;;;;;;;;16.15;44.94;100654.28;4959633;29;1907;-42
2024/02/23 02:34:58;;;;;;;;;;;;;;;15.79;45.24;100646.19;4959406;28;1058;-43
2024/02/23 02:37:24;;;;;;;;;;;;;;;17.31;42.88;100641.31;4959412;29;1041;-44
2024/02/23 02:39:50;;;;;;;;;;;;;;;16.03;45.13;100635.66;4959513;29;1121;-40
2024/02/23 02:42:16;;;;;;;;;;;;;;;15.82;45.55;100634.50;4959670;29;1212;-41
2024/02/23 02:44:41;;;;;;;;;;;;;;;17.11;43.46;100640.19;4959640;29;1128;-42
2024/02/23 02:47:07;;;;;;;;;;;;;;;16.02;45.41;100630.44;4952685;29;1506;-41
2024/02/23 02:49:32;;;;;;;;;;;;;;;15.72;45.03;100626.34;4949568;29;1552;-40
2024/02/23 02:51:58;;;;;;;;;;;;;;;17.40;43.11;100629.09;4955319;29;1976;-40
2024/02/23 02:54:24;;;;;;;;;;;;;;;16.03;45.63;100621.56;4959237;29;1153;-43
2024/02/23 02:56:50;;;;;;;;;;;;;;;17.73;42.37;100623.88;4959160;29;1030;-42
2024/02/23 02:59:16;;;;;;;;;;;;;;;17.44;42.56;100622.56;4958228;29;886;-42
2024/02/23 03:01:41;;;;;;;;;;;;;;;16.30;44.62;100625.75;4959460;29;1053;-42
2024/02/23 03:04:08;;;;;;;;;;;;;;;15.95;45.29;100631.84;4959187;29;1097;-40
2024/02/23 03:06:33;;;;;;;;;;;;;;;16.93;44.32;100630.00;4958793;29;1140;-39
2024/02/23 03:08:59;;;;;;;;;;;;;;;16.86;43.61;100634.06;4959029;29;1193;-42
2024/02/23 03:11:24;;;;;;;;;;;;;;;16.12;44.93;100636.78;4951574;29;1903;-40
2024/02/23 03:13:50;;;;;;;;;;;;;;;16.47;45.53;100639.59;4958747;29;1093;-39
2024/02/23 03:16:18;;;;;;;;;;;;;;;16.92;43.99;100636.25;4958704;28;1077;-39
2024/02/23 03:18:44;;;;;;;;;;;;;;;16.00;45.35;100635.00;4958682;28;1128;-40
2024/02/23 03:21:09;;;;;;;;;;;;;;;15.70;45.15;100637.06;4945829;29;1244;-39
2024/02/23 03:23:35;;;;;;;;;;;;;;;17.42;43.01;100627.16;4958329;29;901;-38
2024/02/23 03:26:02;;;;;;;;;;;;;;;16.29;44.80;100626.75;4958847;29;1046;-43
2024/02/23 03:28:27;;;;;;;;;;;;;;;16.14;45.77;100631.38;4958793;29;1142;-40
2024/02/23 03:30:53;;;;;;;;;;;;;;;17.28;43.03;100633.56;4957479;29;1180;-42
2024/02/23 03:33:18;;;;;;;;;;;;;;;16.15;45.28;100635.72;4958744;29;1977;-39
2024/02/23 03:35:44;;;;;;;;;;;;;;;15.81;44.95;100635.47;4958144;29;1050;-39
2024/02/23 03:38:10;;;;;;;;;;;;;;;16.08;45.39;100631.81;4958112;29;1073;-41
2024/02/23 03:40:35;;;;;;;;;;;;;;;17.04;43.36;100626.50;4958455;29;1521;-39
2024/02/23 03:43:02;;;;;;;;;;;;;;;15.99;45.13;100618.28;4958676;29;1157;-39
2024/02/23 03:45:27;;;;;;;;;;;;;;;16.01;46.18;100615.50;4958535;29;1213;-38
2024/02/23 03:47:53;;;;;;;;;;;;;;;17.12;43.24;100609.97;4957781;29;859;-38
2024/02/23 03:50:18;;;;;;;;;;;;;;;16.05;45.04;100611.66;4958247;29;1113;-38
2024/02/23 03:52:44;;;;;;;;;;;;;;;15.73;45.19;100614.81;4958676;29;1899;-39
2024/02/23 03:55:10;;;;;;;;;;;;;;;15.62;45.05;100618.22;4957928;29;1139;-44
2024/02/23 03:57:36;;;;;;;;;;;;;;;16.96;44.36;100613.81;4958066;29;1185;-40
2024/02/23 04:00:02;;;;;;;;;;;;;;;16.57;44.56;100607.88;4948604;29;1070;-41
2024/02/23 04:02:38;;;;;;;;;;;;;;;15.83;45.47;100620.31;4949653;29;1094;-42
2024/02/23 04:05:04;;;;;;;;;;;;;;;16.88;44.75;100616.22;4953970;29;1113;-39
2024/02/23 04:07:29;;;;;;;;;;;;;;;17.23;43.02;100609.16;4958056;29;1077;-43
2024/02/23 04:09:55;;;;;;;;;;;;;;;16.08;45.42;100602.63;4957701;29;1018;-43
2024/02/23 04:12:21;;;;;;;;;;;;;;;15.68;45.77;100607.19;4951438;29;1964;-42
2024/02/23 04:14:46;;;;;;;;;;;;;;;17.71;42.35;100610.72;4958522;29;1069;-39
2024/02/23 04:17:12;;;;;;;;;;;;;;;16.28;44.97;100596.69;4958053;29;1069;-38
2024/02/23 04:19:37;;;;;;;;;;;;;;;15.86;45.18;100602.38;4938199;29;1134;-37
2024/02/23 04:22:03;;;;;;;;;;;;;;;17.56;42.63;100603.94;4954950;29;1126;-40
2024/02/23 04:24:29;;;;;;;;;;;;;;;16.15;45.19;100598.56;4946564;29;892;-38
2024/02/23 04:26:54;;;;;;;;;;;;;;;15.77;45.29;100595.06;4951760;29;1148;-41
2024/02/23 04:29:20;;;;;;;;;;;;;;;16.26;45.46;100595.97;4950418;29;1042;-43
2024/02/23 04:31:46;;;;;;;;;;;;;;;16.51;44.81;100603.91;4957993;29;1903;-41
2024/02/23 04:34:11;;;;;;;;;;;;;;;15.86;45.23;100607.69;4961181;28;1160;-36
2024/02/23 04:36:37;;;;;;;;;;;;;;;15.63;45.46;100609.31;4961433;29;1073;-46
2024/02/23 04:39:03;;;;;;;;;;;;;;;17.32;43.42;100613.75;4950130;29;1165;-40
2024/02/23 04:41:28;;;;;;;;;;;;;;;16.22;45.12;100618.38;4960618;29;1041;-41
2024/02/23 04:43:59;;;;;;;;;;;;;;;15.73;45.48;100602.38;4955790;29;1085;-46
2024/02/23 04:46:25;;;;;;;;;;;;;;;15.54;44.88;100610.81;4956719;29;1030;-46
2024/02/23 04:48:51;;;;;;;;;;;;;;;17.40;43.29;100607.00;4961308;29;1446;-45
2024/02/23 04:51:16;;;;;;;;;;;;;;;16.21;44.95;100606.09;4961182;29;1119;-42
2024/02/23 04:53:42;;;;;;;;;;;;;;;16.13;45.86;100603.97;4961628;29;1910;-42
2024/02/23 04:56:08;;;;;;;;;;;;;;;17.59;42.18;100614.34;4961295;29;1001;-44
2024/02/23 04:58:33;;;;;;;;;;;;;;;16.19;44.70;100608.00;4961585;29;1141;-44
2024/02/23 05:00:59;;;;;;;;;;;;;;;15.80;44.80;100610.75;4957721;29;902;-43
2024/02/23 05:03:24;;;;;;;;;;;;;;;17.55;42.40;100613.72;4961514;29;1140;-41
2024/02/23 05:05:53;;;;;;;;;;;;;;;16.15;45.07;100614.47;4961059;29;1137;-45
2024/02/23 05:08:20;;;;;;;;;;;;;;;16.75;44.72;100621.59;4961133;29;1065;-44
2024/02/23 05:10:48;;;;;;;;;;;;;;;17.35;42.68;100623.31;4959803;29;1077;-41
2024/02/23 05:13:14;;;;;;;;;;;;;;;16.18;44.68;100630.19;4960571;29;1986;-42
2024/02/23 05:15:40;;;;;;;;;;;;;;;17.63;42.18;100623.78;4959761;29;1186;-40
2024/02/23 05:18:06;;;;;;;;;;;;;;;17.10;43.05;100626.03;4959279;29;1308;-42
2024/02/23 05:20:31;;;;;;;;;;;;;;;16.85;43.62;100635.03;4960681;29;1320;-42
2024/02/23 05:22:57;;;;;;;;;;;;;;;16.62;43.99;100629.63;4960225;29;1261;-41
2024/02/23 05:25:22;;;;;;;;;;;;;;;16.30;44.65;100627.59;4959976;29;1186;-41
2024/02/23 05:27:48;;;;;;;;;;;;;;;16.20;45.03;100635.41;4959842;29;1209;-43
2024/02/23 05:30:14;;;;;;;;;;;;;;;15.98;45.51;100634.28;4960664;29;1041;-44
2024/02/23 05:32:39;;;;;;;;;;;;;;;15.90;45.57;100634.81;4958585;29;1985;-42
2024/02/23 05:35:05;;;;;;;;;;;;;;;15.78;45.60;100641.84;4959861;29;1354;-43
2024/02/23 05:37:30;;;;;;;;;;;;;;;15.64;46.20;100637.53;4950852;29;1030;-43
2024/02/23 05:39:57;;;;;;;;;;;;;;;15.51;46.53;100635.75;4960486;29;1063;-42
2024/02/23 05:42:23;;;;;;;;;;;;;;;15.36;46.69;100642.13;4960099;29;2216;-41
2024/02/23 05:44:48;;;;;;;;;;;;;;;15.25;46.64;100641.06;4959219;28;1084;-40
2024/02/23 05:47:14;;;;;;;;;;;;;;;15.20;46.86;100635.22;4960154;29;1057;-40
2024/02/23 05:49:39;;;;;;;;;;;;;;;15.63;46.07;100643.78;4938738;29;878;-41
2024/02/23 05:52:05;;;;;;;;;;;;;;;17.07;42.77;100636.03;4959682;29;1990;-41
2024/02/23 05:54:31;;;;;;;;;;;;;;;16.50;43.75;100636.72;4959879;29;1218;-42
2024/02/23 05:56:56;;;;;;;;;;;;;;;15.94;45.28;100638.94;4960326;29;1260;-42
2024/02/23 05:59:22;;;;;;;;;;;;;;;15.67;45.69;100642.59;4959815;29;1169;-45
2024/02/23 06:01:47;;;;;;;;;;;;;;;15.52;46.07;100653.34;4959596;29;864;-42
2024/02/23 06:04:13;;;;;;;;;;;;;;;15.37;46.38;100643.81;4959722;29;1102;-42
2024/02/23 06:06:43;;;;;;;;;;;;;;;16.41;44.17;100643.56;4960147;29;1121;-42
2024/02/23 06:09:08;;;;;;;;;;;;;;;17.23;42.11;100651.69;4960144;29;1138;-40
2024/02/23 06:11:34;;;;;;;;;;;;;;;16.28;43.96;100651.59;4959677;29;1963;-41
2024/02/23 06:13:59;;;;;;;;;;;;;;;15.93;45.36;100647.88;4953112;29;1022;-40
2024/02/23 06:16:25;;;;;;;;;;;;;;;15.58;45.70;100651.22;4959251;29;1113;-42
2024/02/23 06:18:50;;;;;;;;;;;;;;;15.44;45.97;100650.38;4959237;29;1186;-41
2024/02/23 06:21:17;;;;;;;;;;;;;;;15.25;46.42;100656.94;4959905;29;1172;-42
2024/02/23 06:23:43;;;;;;;;;;;;;;;15.97;45.03;100657.28;4955567;29;1158;-40
2024/02/23 06:26:08;;;;;;;;;;;;;;;17.22;42.35;100649.97;4957230;29;1252;-43
2024/02/23 06:28:34;;;;;;;;;;;;;;;16.68;43.29;100647.78;4958788;29;1224;-42
2024/02/23 06:30:59;;;;;;;;;;;;;;;16.02;44.89;100649.03;4959351;29;1089;-42
2024/02/23 06:33:24;;;;;;;;;;;;;;;15.69;45.66;100651.31;4958949;29;1915;-44
2024/02/23 06:35:52;;;;;;;;;;;;;;;15.51;46.02;100656.97;4958125;29;1299;-41
2024/02/23 06:38:17;;;;;;;;;;;;;;;15.59;46.19;100661.72;4957096;29;1074;-41
2024/02/23 06:40:44;;;;;;;;;;;;;;;17.05;42.67;100662.72;4958729;29;1945;-45
2024/02/23 06:43:09;;;;;;;;;;;;;;;16.82;42.96;100660.03;4958650;29;1256;-42
2024/02/23 06:45:35;;;;;;;;;;;;;;;16.07;44.78;100659.28;4954504;29;1065;-45
2024/02/23 06:48:00;;;;;;;;;;;;;;;15.72;45.40;100658.19;4956777;29;1118;-44
2024/02/23 06:50:26;;;;;;;;;;;;;;;15.55;45.98;100658.44;4956467;29;1134;-45
2024/02/23 06:52:51;;;;;;;;;;;;;;;15.42;46.34;100654.94;4956030;29;2000;-41
2024/02/23 06:55:17;;;;;;;;;;;;;;;15.32;46.77;100654.72;4957562;28;1109;-41
2024/02/23 06:57:43;;;;;;;;;;;;;;;16.86;43.42;100650.88;4958741;29;1105;-41
2024/02/23 07:00:08;;;;;;;;;;;;;;;17.24;42.10;100650.72;4955101;29;964;-42
2024/02/23 07:02:36;;;;;;;;;;;;;;;16.27;44.03;100649.88;4957984;29;1236;-41
2024/02/23 07:05:04;;;;;;;;;;;;;;;15.85;45.25;100650.22;4957878;29;1206;-40
2024/02/23 07:07:30;;;;;;;;;;;;;;;15.66;45.85;100651.53;4958100;29;1166;-41
2024/02/23 07:09:56;;;;;;;;;;;;;;;15.45;46.27;100646.75;4957922;29;1402;-41
2024/02/23 07:12:21;;;;;;;;;;;;;;;15.43;46.13;100646.88;4958096;29;2007;-40
2024/02/23 07:14:47;;;;;;;;;;;;;;;16.96;42.96;100645.69;4958237;29;1109;-44
2024/02/23 07:17:16;;;;;;;;;;;;;;;16.84;42.97;100644.81;4958639;29;1299;-41
2024/02/23 07:19:41;;;;;;;;;;;;;;;16.11;44.64;100643.06;4958555;29;1319;-40
2024/02/23 07:22:07;;;;;;;;;;;;;;;15.70;45.47;100637.06;4958647;29;1139;-41
2024/02/23 07:24:32;;;;;;;;;;;;;;;15.55;45.86;100634.56;4957881;29;1343;-41
2024/02/23 07:26:58;;;;;;;;;;;;;;;15.38;46.32;100640.22;4957930;29;1130;-40
2024/02/23 07:29:24;;;;;;;;;;;;;;;15.55;46.12;100645.16;4957807;29;982;-40
2024/02/23 07:31:49;;;;;;;;;;;;;;;17.04;42.95;100638.94;4957068;29;1995;-41
2024/02/23 07:34:15;;;;;;;;;;;;;;;16.89;42.73;100645.31;4956551;29;1014;-41
2024/02/23 07:36:40;;;;;;;;;;;;;;;16.16;44.39;100640.06;4957017;29;1029;-40
2024/02/23 07:39:06;;;;;;;;;;;;;;;15.79;45.53;100643.53;4957640;29;1072;-43
2024/02/23 07:41:31;;;;;;;;;;;;;;;15.60;45.60;100636.88;4950794;28;2061;-42
2024/02/23 07:43:57;;;;;;;;;;;;;;;15.39;46.10;100641.91;4957787;29;1159;-40
2024/02/23 07:46:22;;;;;;;;;;;;;;;15.33;46.72;100643.16;4957420;29;1017;-41
2024/02/23 07:48:48;;;;;;;;;;;;;;;16.34;44.70;100639.66;4944303;29;999;-43
2024/02/23 07:51:14;;;;;;;;;;;;;;;17.38;42.02;100650.47;4954769;29;1120;-40
2024/02/23 07:53:39;;;;;;;;;;;;;;;16.47;43.50;100642.25;4957300;29;1899;-40
2024/02/23 07:56:07;;;;;;;;;;;;;;;15.98;44.70;100642.22;4957310;29;1006;-40
2024/02/23 07:58:32;;;;;;;;;;;;;;;15.66;45.54;100640.91;4957612;29;1106;-41
2024/02/23 08:00:58;;;;;;;;;;;;;;;15.49;46.26;100647.41;4953238;29;974;-40
2024/02/23 08:03:23;;;;;;;;;;;;;;;15.32;46.69;100636.19;4952696;29;1173;-39
2024/02/23 08:05:49;;;;;;;;;;;;;;;16.73;43.40;100631.50;4956329;29;1132;-42
2024/02/23 08:08:14;;;;;;;;;;;;;;;16.91;42.68;100631.91;4956299;29;1156;-43
2024/02/23 08:10:40;;;;;;;;;;;;;;;16.05;44.65;100637.34;4957163;29;2408;-44
2024/02/23 08:13:06;;;;;;;;;;;;;;;15.84;45.14;100635.25;4956248;29;1907;-42
2024/02/23 08:15:31;;;;;;;;;;;;;;;15.58;46.12;100640.63;4956645;29;1150;-41
2024/02/23 08:17:57;;;;;;;;;;;;;;;15.41;46.54;100634.69;4956725;29;1162;-42
2024/02/23 08:20:23;;;;;;;;;;;;;;;15.86;45.52;100636.84;4957088;29;1197;-41
2024/02/23 08:22:48;;;;;;;;;;;;;;;17.22;42.31;100634.03;4957109;29;1246;-40
2024/02/23 08:25:14;;;;;;;;;;;;;;;16.93;42.62;100631.78;4951401;29;1240;-40
2024/02/23 08:27:41;;;;;;;;;;;;;;;16.16;44.50;100629.47;4955556;29;1184;-41
2024/02/23 08:30:07;;;;;;;;;;;;;;;15.84;45.42;100635.25;4955234;29;1114;-40
2024/02/23 08:32:34;;;;;;;;;;;;;;;15.67;45.62;100643.47;4957498;29;1977;-42
2024/02/23 08:35:01;;;;;;;;;;;;;;;15.56;46.18;100646.03;4953852;29;1284;-41
2024/02/23 08:37:26;;;;;;;;;;;;;;;15.45;46.12;100635.34;4943682;29;962;-42
2024/02/23 08:39:52;;;;;;;;;;;;;;;16.34;44.25;100629.91;4955428;29;1085;-42
2024/02/23 08:42:17;;;;;;;;;;;;;;;17.44;41.87;100627.88;4956025;29;2780;-41
2024/02/23 08:44:43;;;;;;;;;;;;;;;16.51;43.60;100636.63;4956221;29;1097;-40
2024/02/23 08:47:08;;;;;;;;;;;;;;;15.99;45.29;100641.28;4957322;29;1276;-42
2024/02/23 08:49:34;;;;;;;;;;;;;;;15.72;45.84;100645.78;4956994;29;1307;-41
2024/02/23 08:52:00;;;;;;;;;;;;;;;15.63;45.71;100649.94;4940141;29;1971;-45
2024/02/23 08:54:26;;;;;;;;;;;;;;;15.50;46.33;100654.38;4956874;29;1094;-42
2024/02/23 08:56:51;;;;;;;;;;;;;;;16.05;45.04;100653.28;4953230;29;843;-40
2024/02/23 08:59:17;;;;;;;;;;;;;;;17.30;42.20;100647.56;4956726;29;1134;-42
2024/02/23 09:01:49;;;;;;;;;;;;;;;16.71;43.42;100649.34;4949835;29;1026;-42
2024/02/23 09:04:17;;;;;;;;;;;;;;;16.05;44.96;100640.00;4955388;29;1189;-39
2024/02/23 09:06:42;;;;;;;;;;;;;;;15.84;45.36;100645.84;4928164;29;985;-41
2024/02/23 09:09:08;;;;;;;;;;;;;;;15.66;45.61;100640.91;4957254;29;1307;-40
2024/02/23 09:11:34;;;;;;;;;;;;;;;15.53;45.96;100647.06;4955933;29;1906;-43
2024/02/23 09:13:59;;;;;;;;;;;;;;;15.45;46.30;100646.75;4955974;29;1979;-40
2024/02/23 09:16:25;;;;;;;;;;;;;;;15.70;46.23;100653.00;4957613;29;1118;-40
2024/02/23 09:18:51;;;;;;;;;;;;;;;17.13;42.71;100651.56;4957620;28;1300;-40
2024/02/23 09:21:18;;;;;;;;;;;;;;;16.82;43.16;100651.19;4960801;28;1226;-43
2024/02/23 09:23:44;;;;;;;;;;;;;;;16.16;44.46;100650.69;4943362;29;1304;-43
2024/02/23 09:26:13;;;;;;;;;;;;;;;15.97;45.28;100643.16;4960512;29;1287;-41
2024/02/23 09:28:44;;;;;;;;;;;;;;;15.65;46.03;100641.84;4960173;29;1163;-41
2024/02/23 09:31:10;;;;;;;;;;;;;;;15.48;46.40;100640.41;4960723;29;1087;-42
2024/02/23 09:33:36;;;;;;;;;;;;;;;15.36;46.39;100639.47;4959897;29;1915;-41
2024/02/23 09:36:03;;;;;;;;;;;;;;;16.61;44.07;100635.94;4959464;29;1065;-41
2024/02/23 09:38:29;;;;;;;;;;;;;;;17.47;41.94;100624.97;4959270;29;1035;-42
2024/02/23 09:40:54;;;;;;;;;;;;;;;16.48;44.05;100623.56;4959198;29;2531;-40
2024/02/23 09:43:25;;;;;;;;;;;;;;;16.07;44.92;100622.16;4959382;29;1093;-41
2024/02/23 09:45:52;;;;;;;;;;;;;;;15.77;45.87;100619.78;4959460;29;1037;-42
2024/02/23 09:48:18;;;;;;;;;;;;;;;15.57;46.02;100615.03;4958854;29;946;-40
2024/02/23 09:50:44;;;;;;;;;;;;;;;15.46;46.22;100613.16;4950747;29;962;-41
2024/02/23 09:53:10;;;;;;;;;;;;;;;16.35;44.54;100606.88;4942616;29;1918;-41
2024/02/23 09:55:36;;;;;;;;;;;;;;;17.42;42.06;100602.38;4943070;29;1022;-41
2024/02/23 09:58:02;;;;;;;;;;;;;;;16.52;43.74;100616.22;4959559;29;1304;-43
2024/02/23 10:00:29;;;;;;;;;;;;;;;15.98;44.86;100613.03;4959266;29;1074;-44
2024/02/23 10:02:55;;;;;;;;;;;;;;;15.70;45.70;100618.50;4956720;29;1331;-43
2024/02/23 10:05:23;;;;;;;;;;;;;;;15.61;46.24;100619.19;4959779;29;1118;-42
2024/02/23 10:07:48;;;;;;;;;;;;;;;15.46;46.48;100611.38;4947459;29;1090;-44
2024/02/23 10:10:14;;;;;;;;;;;;;;;15.39;46.69;100607.44;4959759;29;1268;-41
2024/02/23 10:12:39;;;;;;;;;;;;;;;16.67;43.89;100597.41;4958077;29;2096;-40
2024/02/23 10:15:06;;;;;;;;;;;;;;;17.32;42.12;100600.44;4955204;29;1179;-41
2024/02/23 10:17:32;;;;;;;;;;;;;;;16.44;44.33;100602.66;4958189;29;1210;-41
2024/02/23 10:19:59;;;;;;;;;;;;;;;15.96;45.58;100588.41;4958482;29;1209;-42
2024/02/23 10:22:25;;;;;;;;;;;;;;;15.82;45.47;100589.41;4958165;29;1205;-44
2024/02/23 10:24:51;;;;;;;;;;;;;;;15.63;46.04;100588.94;4958973;29;1194;-42
2024/02/23 10:27:16;;;;;;;;;;;;;;;15.50;46.64;100593.41;4956580;29;1395;-41
2024/02/23 10:29:42;;;;;;;;;;;;;;;15.36;46.80;100589.97;4958620;29;1079;-41
2024/02/23 10:32:08;;;;;;;;;;;;;;;16.29;44.76;100578.97;4957373;28;1978;-42
2024/02/23 10:34:33;;;;;;;;;;;;;;;17.37;42.49;100582.31;4958079;29;1152;-42
2024/02/23 10:36:59;;;;;;;;;;;;;;;16.44;44.44;100582.28;4948525;29;1133;-41
2024/02/23 10:39:25;;;;;;;;;;;;;;;15.97;45.32;100577.69;4925604;29;1041;-41
2024/02/23 10:41:56;;;;;;;;;;;;;;;15.72;45.85;100568.00;4954112;28;1784;-41
2024/02/23 10:44:21;;;;;;;;;;;;;;;15.57;46.21;100575.28;4958107;29;1130;-42
2024/02/23 10:46:50;;;;;;;;;;;;;;;15.49;46.38;100562.56;4958659;29;1150;-43
2024/02/23 10:49:16;;;;;;;;;;;;;;;15.58;46.47;100556.59;4941599;29;1285;-42
2024/02/23 10:51:42;;;;;;;;;;;;;;;17.04;43.19;100552.09;4956495;29;1976;-41
2024/02/23 10:54:07;;;;;;;;;;;;;;;16.83;43.36;100560.75;4941086;29;1245;-43
2024/02/23 10:56:33;;;;;;;;;;;;;;;16.14;44.99;100563.22;4935226;29;1273;-41
2024/02/23 10:58:58;;;;;;;;;;;;;;;15.90;45.49;100563.19;4956591;29;1101;-42
2024/02/23 11:01:24;;;;;;;;;;;;;;;15.60;46.28;100569.78;4958208;29;1264;-39
2024/02/23 11:03:50;;;;;;;;;;;;;;;15.50;46.60;100562.47;4954808;29;1085;-41
2024/02/23 11:06:20;;;;;;;;;;;;;;;15.48;46.79;100558.22;4956936;29;1260;-40
2024/02/23 11:08:46;;;;;;;;;;;;;;;17.12;43.09;100559.47;4942133;29;1252;-42
2024/02/23 11:11:13;;;;;;;;;;;;;;;17.22;42.78;100551.63;4958301;29;1288;-39
2024/02/23 11:13:39;;;;;;;;;;;;;;;16.46;44.48;100552.94;4957602;29;1906;-44
2024/02/23 11:16:05;;;;;;;;;;;;;;;16.05;45.37;100560.41;4956169;29;1188;-45
2024/02/23 11:18:32;;;;;;;;;;;;;;;15.77;46.29;100545.53;4957497;29;1204;-41
2024/02/23 11:21:01;;;;;;;;;;;;;;;15.65;46.40;100549.91;4958184;29;1426;-42
2024/02/23 11:23:27;;;;;;;;;;;;;;;15.50;46.65;100546.56;4958016;29;1347;-41
2024/02/23 11:26:02;;;;;;;;;;;;;;;15.36;47.21;100550.19;4957924;29;1125;-43
2024/02/23 11:28:27;;;;;;;;;;;;;;;15.70;46.81;100538.97;4958116;29;1279;-44
2024/02/23 11:30:53;;;;;;;;;;;;;;;17.11;43.29;100532.06;4940602;29;1134;-40
2024/02/23 11:33:28;;;;;;;;;;;;;;;17.07;43.12;100537.69;4955558;29;1906;-41
2024/02/23 11:35:55;;;;;;;;;;;;;;;16.19;44.94;100532.81;4953361;29;926;-41
2024/02/23 11:38:20;;;;;;;;;;;;;;;15.99;45.68;100527.19;4940391;29;1574;-45
2024/02/23 11:40:47;;;;;;;;;;;;;;;15.71;46.44;100519.44;4940106;29;1253;-41
2024/02/23 11:43:12;;;;;;;;;;;;;;;15.54;46.89;100518.88;4956356;28;1300;-42
2024/02/23 11:45:38;;;;;;;;;;;;;;;15.41;46.86;100526.00;4957624;29;1241;-44
2024/02/23 11:48:05;;;;;;;;;;;;;;;15.46;46.77;100525.69;4957700;29;1300;-42
2024/02/23 11:50:30;;;;;;;;;;;;;;;16.89;43.92;100523.09;4954605;29;1185;-41
2024/02/23 11:52:55;;;;;;;;;;;;;;;16.80;43.80;100520.31;4957363;29;1972;-43
2024/02/23 11:55:22;;;;;;;;;;;;;;;16.15;45.48;100514.47;4956420;29;1248;-44
2024/02/23 11:57:48;;;;;;;;;;;;;;;15.77;46.16;100518.13;4956552;29;1496;-42
2024/02/23 12:00:13;;;;;;;;;;;;;;;15.64;46.39;100512.91;4954927;29;1206;-42
2024/02/23 12:02:39;;;;;;;;;;;;;;;15.42;46.97;100517.09;4956143;29;987;-45
2024/02/23 12:05:05;;;;;;;;;;;;;;;15.35;47.10;100516.69;4957654;29;1201;-39
2024/02/23 12:07:30;;;;;;;;;;;;;;;16.27;45.19;100519.81;4957265;29;1194;-46
2024/02/23 12:09:56;;;;;;;;;;;;;;;17.45;42.56;100517.06;4956258;29;1209;-40
2024/02/23 12:12:21;;;;;;;;;;;;;;;16.57;44.32;100515.81;4938428;29;1902;-42
2024/02/23 12:14:47;;;;;;;;;;;;;;;16.08;45.70;100512.41;4955904;29;1105;-42
2024/02/23 12:17:13;;;;;;;;;;;;;;;15.74;46.44;100502.44;4938139;29;1225;-41
2024/02/23 12:19:40;;;;;;;;;;;;;;;15.58;46.69;100514.16;4955729;29;1206;-42
2024/02/23 12:22:05;;;;;;;;;;;;;;;15.52;46.78;100509.31;4955641;29;1182;-39
2024/02/23 12:24:31;;;;;;;;;;;;;;;15.36;47.05;100515.75;4957465;29;1165;-38
2024/02/23 12:26:57;;;;;;;;;;;;;;;16.89;43.93;100516.94;4954023;29;1144;-37
2024/02/23 12:29:22;;;;;;;;;;;;;;;16.97;43.68;100511.00;4954355;29;1121;-39
2024/02/23 12:31:48;;;;;;;;;;;;;;;16.27;45.14;100512.72;4957418;29;1992;-39
2024/02/23 12:34:14;;;;;;;;;;;;;;;15.95;45.66;100515.09;4937694;29;1506;-40
2024/02/23 12:36:39;;;;;;;;;;;;;;;15.67;46.44;100520.63;4956801;29;1125;-42
2024/02/23 12:39:05;;;;;;;;;;;;;;;15.59;46.52;100515.88;4952403;29;1018;-39
2024/02/23 12:41:30;;;;;;;;;;;;;;;15.41;47.28;100526.00;4950170;29;1145;-41